CEZ weather

Public forecast

Using degrees Fahrenheit for public forecast. Weather courtesy of forecast.io.

Current aviation weather report (METAR) for Cortez Municipal Airport

Retrieved 2020/08/13 07:53 UTC (12 minutes ago):

KCEZ 130753Z AUTO 06004KT 10SM CLR 13/M02 A3022 RMK AO2 SLP150 T01281022

Closest aviation forecast (TAF) to Cortez Municipal Airport

Closest forecast is Four Corners Regional Airport, 38.8 nm (71.8 km) SSE. Retrieved 2020/08/13 06:24 UTC (2 hours ago):

TAF KFMN 130521Z 1306/1406 32007KT P6SM SKC FM131000 06006KT P6SM SKC FM132000 27010G16KT P6SM FEW130 FM140200 31006KT P6SM SCT200